Terminal Aerodrome Forecast
Issued by NWS Kansas City/Pleasant Hill, MO

Home | Current Version | Previous Version | Text Only | Print | Product List | Glossary On
Versions: 1 2 3 4 5 6 7 8 9 10 11 12 13 14 15 16 17 18 19 20
000
FTUS43 KEAX 190900 AAC
TAFMCI
TAF AMD
KMCI 190916Z 1909/2006 00000KT 4SM -SHRA BR VCTS BKN003 OVC050CB
      TEMPO 1909/1910 1/4SM FG BKN001
     FM191200 VRB04KT 5SM BR VCSH BKN010
     FM191800 33008KT P6SM -RA VCTS OVC040CB
     FM200300 32012KT P6SM OVC050=

USA.gov is the U.S. government's official web portal to all federal, state and local government web resources and services.